Time;durP1;ratioP1;P1;durP2;ratioP2;P2;SDS_P1;SDS_P2;PMS_P1;PMS_P2;Temp;Humidity;BMP_temperature;BMP_pressure;BME280_temperature;BME280_humidity;BME280_pressure;Samples;Min_cycle;Max_cycle;Signal;HPM_P1;HPM_P2
2021/09/21 00:01:42;;;;;;;8.73;1.60;;;;;;;;;;5080526;28;20484;-41
2021/09/21 00:04:09;;;;;;;7.78;1.50;;;;;;;;;;5066907;28;20658;-41
2021/09/21 00:06:36;;;;;;;8.60;1.77;;;;;;;;;;5077208;28;20055;-41
2021/09/21 00:09:03;;;;;;;6.57;1.60;;;;;;;;;;5071741;28;20024;-44
2021/09/21 00:11:31;;;;;;;12.40;1.50;;;;;;;;;;5059478;28;20039;-44
2021/09/21 00:13:59;;;;;;;11.68;1.88;;;;;;;;;;5067094;28;20105;-42
2021/09/21 00:16:26;;;;;;;8.95;1.70;;;;;;;;;;5077432;28;20042;-47
2021/09/21 00:18:53;;;;;;;11.40;1.35;;;;;;;;;;5068033;28;20021;-41
2021/09/21 00:21:20;;;;;;;17.48;1.40;;;;;;;;;;5060383;28;20377;-41
2021/09/21 00:23:47;;;;;;;7.03;1.50;;;;;;;;;;5068812;28;20027;-43
2021/09/21 00:26:14;;;;;;;7.80;1.52;;;;;;;;;;5069382;28;20039;-42
2021/09/21 00:28:42;;;;;;;10.35;2.10;;;;;;;;;;5077646;28;20048;-44
2021/09/21 00:31:10;;;;;;;10.02;1.88;;;;;;;;;;5070370;28;20132;-46
2021/09/21 00:33:50;;;;;;;9.15;1.92;;;;;;;;;;5067813;28;20021;-42
2021/09/21 00:36:17;;;;;;;12.55;1.90;;;;;;;;;;5073469;28;20032;-43
2021/09/21 00:38:44;;;;;;;19.35;2.20;;;;;;;;;;5068656;28;20029;-42
2021/09/21 00:41:12;;;;;;;10.43;1.90;;;;;;;;;;5068064;28;20078;-43
2021/09/21 00:43:39;;;;;;;10.23;2.05;;;;;;;;;;5068692;28;20013;-42
2021/09/21 00:46:06;;;;;;;17.02;2.05;;;;;;;;;;5066008;28;20078;-42
2021/09/21 00:48:33;;;;;;;12.00;2.05;;;;;;;;;;5072850;28;20664;-43
2021/09/21 00:51:01;;;;;;;11.52;2.22;;;;;;;;;;5071218;28;20027;-47
2021/09/21 00:53:29;;;;;;;7.47;2.03;;;;;;;;;;5075585;28;20024;-45
2021/09/21 00:55:56;;;;;;;9.52;2.00;;;;;;;;;;5073149;28;20025;-41
2021/09/21 00:58:23;;;;;;;12.35;2.45;;;;;;;;;;5076667;28;20488;-42
2021/09/21 01:00:50;;;;;;;13.70;2.05;;;;;;;;;;5080423;28;20444;-42
2021/09/21 01:03:18;;;;;;;12.02;2.63;;;;;;;;;;5080648;28;20094;-42
2021/09/21 01:05:46;;;;;;;12.27;3.22;;;;;;;;;;5074999;28;20024;-44
2021/09/21 01:08:13;;;;;;;10.98;2.83;;;;;;;;;;5069867;28;20028;-42
2021/09/21 01:10:40;;;;;;;13.68;3.40;;;;;;;;;;5073160;28;20028;-42
2021/09/21 01:13:07;;;;;;;15.80;3.60;;;;;;;;;;5073099;28;20064;-42
2021/09/21 01:15:34;;;;;;;18.08;3.72;;;;;;;;;;5066956;28;20099;-42
2021/09/21 01:18:01;;;;;;;17.80;4.25;;;;;;;;;;5068924;28;20028;-42
2021/09/21 01:20:28;;;;;;;18.10;4.03;;;;;;;;;;5062456;28;20060;-42
2021/09/21 01:22:55;;;;;;;20.02;4.72;;;;;;;;;;5067067;28;20401;-42
2021/09/21 01:25:22;;;;;;;23.80;4.93;;;;;;;;;;5071509;28;20020;-44
2021/09/21 01:27:49;;;;;;;31.77;5.05;;;;;;;;;;5079567;28;20024;-43
2021/09/21 01:30:16;;;;;;;22.15;4.93;;;;;;;;;;5080758;28;20055;-44
2021/09/21 01:32:44;;;;;;;21.45;4.57;;;;;;;;;;5081830;28;20486;-42
2021/09/21 01:35:11;;;;;;;23.77;4.45;;;;;;;;;;5075820;28;20028;-44
2021/09/21 01:37:40;;;;;;;22.95;4.82;;;;;;;;;;5075175;28;20032;-42
2021/09/21 01:40:07;;;;;;;19.65;4.78;;;;;;;;;;5082789;28;20606;-43
2021/09/21 01:42:34;;;;;;;16.52;4.38;;;;;;;;;;5067939;28;20112;-42
2021/09/21 01:45:01;;;;;;;16.25;4.97;;;;;;;;;;5066506;28;20021;-42
2021/09/21 01:47:28;;;;;;;18.52;5.07;;;;;;;;;;5064864;28;20491;-42
2021/09/21 01:50:11;;;;;;;24.13;4.47;;;;;;;;;;5069416;28;20480;-40
2021/09/21 01:52:45;;;;;;;26.92;5.05;;;;;;;;;;5064049;28;20036;-40
2021/09/21 02:00:45;;;;;;;36.25;4.90;;;;;;;;;;5063098;28;20044;-42
2021/09/21 02:03:12;;;;;;;28.58;4.85;;;;;;;;;;5068334;28;20387;-41
2021/09/21 02:05:40;;;;;;;22.85;4.50;;;;;;;;;;5070915;28;20048;-42
2021/09/21 02:08:07;;;;;;;23.23;4.50;;;;;;;;;;5071806;28;20016;-46
2021/09/21 02:10:34;;;;;;;21.98;3.78;;;;;;;;;;5070408;28;20032;-43
2021/09/21 02:13:01;;;;;;;18.60;4.15;;;;;;;;;;5068134;28;20035;-42
2021/09/21 02:15:31;;;;;;;22.08;4.60;;;;;;;;;;5063468;28;20029;-41
2021/09/21 02:18:01;;;;;;;16.85;4.32;;;;;;;;;;5064470;28;20031;-41
2021/09/21 02:20:29;;;;;;;24.80;4.90;;;;;;;;;;5063754;28;20699;-42
2021/09/21 02:22:56;;;;;;;18.35;4.20;;;;;;;;;;5057900;28;20036;-40
2021/09/21 02:25:23;;;;;;;19.75;3.80;;;;;;;;;;5060669;28;20567;-43
2021/09/21 02:27:50;;;;;;;21.10;4.00;;;;;;;;;;5068255;28;20032;-43
2021/09/21 02:30:17;;;;;;;19.08;3.97;;;;;;;;;;5065392;28;20116;-43
2021/09/21 02:32:46;;;;;;;24.67;4.18;;;;;;;;;;5062129;28;20033;-41
2021/09/21 02:35:13;;;;;;;19.92;4.07;;;;;;;;;;5070799;28;20177;-44
2021/09/21 02:37:40;;;;;;;20.70;3.85;;;;;;;;;;5065657;28;20020;-39
2021/09/21 02:40:08;;;;;;;12.10;3.88;;;;;;;;;;5070098;28;20051;-41
2021/09/21 02:42:35;;;;;;;17.33;3.70;;;;;;;;;;5070263;28;20016;-43
2021/09/21 02:45:05;;;;;;;28.15;4.35;;;;;;;;;;5069548;28;20044;-44
2021/09/21 02:47:32;;;;;;;12.02;3.40;;;;;;;;;;5063936;28;20112;-42
2021/09/21 02:49:59;;;;;;;17.17;3.60;;;;;;;;;;5067863;28;20025;-44
2021/09/21 02:52:27;;;;;;;20.27;3.60;;;;;;;;;;5070776;28;20590;-43
2021/09/21 02:54:54;;;;;;;17.73;3.63;;;;;;;;;;5068974;28;20032;-46
2021/09/21 02:57:21;;;;;;;16.60;3.70;;;;;;;;;;5069498;28;20028;-44
2021/09/21 02:59:48;;;;;;;19.33;3.92;;;;;;;;;;5071646;28;20029;-44
2021/09/21 03:02:16;;;;;;;14.93;3.53;;;;;;;;;;5066904;28;20021;-50
2021/09/21 03:05:08;;;;;;;21.40;3.28;;;;;;;;;;5065998;28;20084;-44
2021/09/21 03:07:36;;;;;;;16.02;3.80;;;;;;;;;;5050934;28;20140;-45
2021/09/21 03:10:13;;;;;;;17.75;3.38;;;;;;;;;;5051842;28;20055;-43
2021/09/21 03:13:02;;;;;;;19.45;3.08;;;;;;;;;;5051600;28;20037;-45
2021/09/21 03:18:12;;;;;;;11.38;2.90;;;;;;;;;;5053909;28;20036;-44
2021/09/21 03:20:39;;;;;;;13.95;2.97;;;;;;;;;;5054555;28;20025;-44
2021/09/21 03:23:06;;;;;;;15.07;3.05;;;;;;;;;;5055235;28;20385;-48
2021/09/21 03:25:33;;;;;;;15.52;3.47;;;;;;;;;;5055904;28;20112;-44
2021/09/21 03:28:00;;;;;;;20.42;3.10;;;;;;;;;;5055189;28;20013;-43
2021/09/21 03:30:27;;;;;;;15.57;2.83;;;;;;;;;;5055195;28;20052;-45
2021/09/21 03:32:54;;;;;;;8.73;2.78;;;;;;;;;;5055070;28;20029;-44
2021/09/21 03:35:21;;;;;;;16.30;2.60;;;;;;;;;;5055569;28;20013;-44
2021/09/21 03:37:48;;;;;;;12.02;2.80;;;;;;;;;;5055475;28;20095;-44
2021/09/21 03:40:15;;;;;;;13.40;3.30;;;;;;;;;;5070409;28;20025;-45
2021/09/21 03:42:42;;;;;;;12.98;2.60;;;;;;;;;;5055260;28;20025;-44
2021/09/21 03:45:10;;;;;;;13.18;2.80;;;;;;;;;;5054942;28;20028;-44
2021/09/21 03:47:37;;;;;;;10.65;2.28;;;;;;;;;;5070454;28;20029;-44
2021/09/21 03:50:04;;;;;;;8.23;2.63;;;;;;;;;;5054698;28;20389;-44
2021/09/21 03:52:31;;;;;;;9.75;2.38;;;;;;;;;;5055061;28;20028;-43
2021/09/21 03:54:58;;;;;;;10.48;2.50;;;;;;;;;;5054635;28;20028;-47
2021/09/21 03:57:25;;;;;;;9.90;2.25;;;;;;;;;;5055273;28;20369;-46
2021/09/21 03:59:52;;;;;;;8.43;2.35;;;;;;;;;;5054705;28;20025;-49
2021/09/21 04:02:19;;;;;;;8.35;2.47;;;;;;;;;;5054834;28;20013;-44
2021/09/21 04:04:46;;;;;;;8.77;2.33;;;;;;;;;;5054328;28;20492;-44
2021/09/21 04:07:13;;;;;;;7.72;2.30;;;;;;;;;;5054910;28;20017;-46
2021/09/21 04:09:40;;;;;;;10.02;2.83;;;;;;;;;;5054885;28;20480;-45
2021/09/21 04:12:07;;;;;;;13.27;2.08;;;;;;;;;;5054187;28;20033;-44
2021/09/21 04:14:35;;;;;;;7.40;2.20;;;;;;;;;;5054497;28;20029;-43
2021/09/21 04:17:02;;;;;;;7.53;1.95;;;;;;;;;;5054303;28;20384;-45
2021/09/21 04:19:29;;;;;;;7.88;2.28;;;;;;;;;;5054689;28;20029;-43
2021/09/21 04:21:56;;;;;;;10.32;2.58;;;;;;;;;;5054021;28;20053;-43
2021/09/21 04:24:23;;;;;;;6.20;2.13;;;;;;;;;;5054542;28;20088;-43
2021/09/21 04:26:50;;;;;;;5.55;2.33;;;;;;;;;;5054067;28;20067;-43
2021/09/21 04:29:17;;;;;;;9.48;2.45;;;;;;;;;;5054392;28;20124;-43
2021/09/21 04:31:45;;;;;;;10.10;2.10;;;;;;;;;;5053732;28;20436;-43
2021/09/21 04:34:16;;;;;;;8.70;2.03;;;;;;;;;;5054633;28;20021;-43
2021/09/21 04:36:44;;;;;;;5.78;2.17;;;;;;;;;;5053722;28;20037;-43
2021/09/21 04:39:11;;;;;;;9.77;2.35;;;;;;;;;;5054245;28;20027;-43
2021/09/21 04:41:39;;;;;;;4.18;1.70;;;;;;;;;;5054251;28;20021;-45
2021/09/21 04:44:07;;;;;;;7.32;2.20;;;;;;;;;;5053885;28;20033;-43
2021/09/21 04:46:34;;;;;;;6.53;1.80;;;;;;;;;;5053885;28;20025;-45
2021/09/21 04:49:04;;;;;;;7.57;1.90;;;;;;;;;;5053471;28;20040;-46
2021/09/21 04:51:31;;;;;;;7.63;1.98;;;;;;;;;;5053934;28;20032;-44
2021/09/21 04:53:58;;;;;;;10.70;1.83;;;;;;;;;;5053613;28;20100;-45
2021/09/21 04:56:25;;;;;;;9.18;1.85;;;;;;;;;;5054071;28;20045;-45
2021/09/21 04:58:52;;;;;;;4.97;1.30;;;;;;;;;;5053506;28;20086;-43
2021/09/21 05:01:19;;;;;;;4.43;1.40;;;;;;;;;;5053603;28;20108;-45
2021/09/21 05:03:46;;;;;;;5.63;1.50;;;;;;;;;;5058662;28;20108;-44
2021/09/21 05:06:13;;;;;;;5.68;1.90;;;;;;;;;;5053726;28;20028;-42
2021/09/21 05:08:40;;;;;;;5.80;1.70;;;;;;;;;;5053026;28;20013;-43
2021/09/21 05:11:07;;;;;;;3.63;1.58;;;;;;;;;;5053717;28;20388;-43
2021/09/21 05:13:34;;;;;;;4.82;1.63;;;;;;;;;;5053218;28;20021;-43
2021/09/21 05:16:01;;;;;;;4.32;1.52;;;;;;;;;;5053607;28;20028;-44
2021/09/21 05:18:28;;;;;;;5.18;1.85;;;;;;;;;;5053642;28;20032;-45
2021/09/21 05:20:55;;;;;;;6.07;1.70;;;;;;;;;;5053348;28;20108;-45
2021/09/21 05:23:22;;;;;;;5.75;1.80;;;;;;;;;;5053645;28;20024;-44
2021/09/21 05:25:49;;;;;;;4.97;1.50;;;;;;;;;;5052991;28;20522;-45
2021/09/21 05:28:17;;;;;;;4.15;1.40;;;;;;;;;;5053701;28;20021;-43
2021/09/21 05:30:43;;;;;;;5.05;1.65;;;;;;;;;;5051167;28;20124;-44
2021/09/21 05:33:10;;;;;;;6.07;1.63;;;;;;;;;;5053133;28;20481;-47
2021/09/21 05:35:37;;;;;;;5.15;1.30;;;;;;;;;;5052279;28;20415;-45
2021/09/21 05:38:04;;;;;;;4.95;1.48;;;;;;;;;;5053367;28;20385;-43
2021/09/21 05:40:32;;;;;;;5.15;1.20;;;;;;;;;;5052795;28;20063;-43
2021/09/21 05:42:59;;;;;;;7.85;1.50;;;;;;;;;;5053075;28;20014;-43
2021/09/21 05:45:26;;;;;;;3.05;1.17;;;;;;;;;;5052809;28;20075;-43
2021/09/21 05:47:54;;;;;;;4.88;1.33;;;;;;;;;;5052827;28;20507;-45
2021/09/21 05:50:22;;;;;;;3.75;1.30;;;;;;;;;;5052982;28;20033;-45
2021/09/21 05:52:49;;;;;;;2.78;1.02;;;;;;;;;;5052162;28;20028;-44
2021/09/21 05:55:16;;;;;;;4.25;1.40;;;;;;;;;;5052900;28;20071;-45
2021/09/21 05:57:44;;;;;;;2.30;1.10;;;;;;;;;;5051374;28;20049;-44
2021/09/21 06:00:11;;;;;;;4.80;1.35;;;;;;;;;;5051372;28;20075;-47
2021/09/21 06:02:38;;;;;;;2.53;1.08;;;;;;;;;;5051958;28;20400;-44
2021/09/21 06:05:06;;;;;;;2.97;1.30;;;;;;;;;;5052858;28;20104;-44
2021/09/21 06:07:34;;;;;;;5.65;1.27;;;;;;;;;;5052466;28;20025;-48
2021/09/21 06:10:01;;;;;;;2.53;0.90;;;;;;;;;;5052688;28;20117;-44
2021/09/21 06:12:28;;;;;;;3.03;1.08;;;;;;;;;;5051916;28;20033;-45
2021/09/21 06:14:55;;;;;;;2.30;1.00;;;;;;;;;;5052467;28;20099;-44
2021/09/21 06:17:22;;;;;;;2.63;1.20;;;;;;;;;;5052187;28;20021;-44
2021/09/21 06:19:49;;;;;;;4.55;1.10;;;;;;;;;;5052344;28;20032;-43
2021/09/21 06:22:16;;;;;;;2.13;1.10;;;;;;;;;;5052665;28;20029;-44
2021/09/21 06:24:43;;;;;;;4.10;1.20;;;;;;;;;;5051558;28;20029;-43
2021/09/21 06:27:10;;;;;;;5.55;1.27;;;;;;;;;;5052299;28;20481;-43
2021/09/21 06:29:37;;;;;;;3.20;1.10;;;;;;;;;;5051772;28;20493;-45
2021/09/21 06:32:04;;;;;;;4.13;1.00;;;;;;;;;;5052305;28;20129;-46
2021/09/21 06:34:31;;;;;;;2.58;1.10;;;;;;;;;;5051542;28;20018;-44
2021/09/21 06:36:59;;;;;;;2.47;1.00;;;;;;;;;;5052382;28;20098;-43
2021/09/21 06:39:26;;;;;;;3.03;0.90;;;;;;;;;;5051616;28;20021;-45
2021/09/21 06:41:53;;;;;;;2.25;1.00;;;;;;;;;;5052083;28;20393;-44
2021/09/21 06:44:20;;;;;;;3.35;1.20;;;;;;;;;;5051565;28;20021;-43
2021/09/21 06:46:47;;;;;;;3.63;1.08;;;;;;;;;;5051157;28;20473;-43
2021/09/21 06:49:14;;;;;;;2.25;1.05;;;;;;;;;;5051865;28;20025;-43
2021/09/21 06:51:41;;;;;;;1.70;0.70;;;;;;;;;;5050282;28;20056;-44
2021/09/21 06:54:08;;;;;;;2.17;1.05;;;;;;;;;;5051816;28;20025;-43
2021/09/21 06:56:35;;;;;;;5.80;1.10;;;;;;;;;;5051260;28;20029;-44
2021/09/21 06:59:02;;;;;;;1.67;0.80;;;;;;;;;;5051766;28;20028;-43
2021/09/21 07:01:29;;;;;;;2.40;1.17;;;;;;;;;;5050129;28;20385;-44
2021/09/21 07:03:56;;;;;;;3.47;1.00;;;;;;;;;;5051767;28;20473;-43
2021/09/21 07:06:23;;;;;;;2.65;0.82;;;;;;;;;;5051515;28;20057;-44
2021/09/21 07:08:50;;;;;;;2.17;0.95;;;;;;;;;;5051759;28;20429;-45
2021/09/21 07:11:19;;;;;;;3.70;0.90;;;;;;;;;;5051324;28;20037;-43
2021/09/21 07:13:46;;;;;;;1.77;0.95;;;;;;;;;;5051618;28;20435;-43
2021/09/21 07:16:14;;;;;;;2.47;0.88;;;;;;;;;;5051312;28;20029;-45
2021/09/21 07:18:41;;;;;;;2.90;0.88;;;;;;;;;;5051582;28;20021;-47
2021/09/21 07:21:08;;;;;;;2.38;0.90;;;;;;;;;;5051485;28;20096;-43
2021/09/21 07:23:35;;;;;;;1.70;0.80;;;;;;;;;;5051568;28;20549;-44
2021/09/21 07:26:03;;;;;;;2.25;0.80;;;;;;;;;;5051645;28;20048;-44
2021/09/21 07:28:30;;;;;;;1.48;0.70;;;;;;;;;;5051360;28;20020;-44
2021/09/21 07:30:57;;;;;;;2.13;1.00;;;;;;;;;;5051541;28;20053;-45
2021/09/21 07:33:24;;;;;;;1.65;0.70;;;;;;;;;;5051092;28;20029;-43
2021/09/21 07:35:51;;;;;;;3.53;0.90;;;;;;;;;;5051391;28;20402;-45
2021/09/21 07:38:19;;;;;;;2.85;0.90;;;;;;;;;;5051246;28;20029;-45
2021/09/21 07:40:47;;;;;;;2.88;1.02;;;;;;;;;;5051491;28;20377;-44
2021/09/21 07:43:14;;;;;;;3.35;0.80;;;;;;;;;;5051034;28;20100;-45
2021/09/21 07:45:41;;;;;;;2.05;0.70;;;;;;;;;;5051510;28;20092;-44
2021/09/21 07:48:09;;;;;;;2.35;0.98;;;;;;;;;;5050788;28;20472;-43
2021/09/21 07:50:36;;;;;;;1.38;0.73;;;;;;;;;;5050080;28;20037;-44
2021/09/21 07:53:03;;;;;;;2.15;0.68;;;;;;;;;;5051117;28;20067;-44
2021/09/21 07:55:30;;;;;;;1.80;0.70;;;;;;;;;;5051114;28;20017;-43
2021/09/21 07:57:57;;;;;;;6.18;0.88;;;;;;;;;;5051224;28;20067;-45
2021/09/21 08:00:26;;;;;;;2.97;0.70;;;;;;;;;;5053792;28;20021;-45
2021/09/21 08:02:53;;;;;;;1.67;0.70;;;;;;;;;;5054919;28;20039;-43
2021/09/21 08:05:20;;;;;;;1.70;0.70;;;;;;;;;;5054189;28;20127;-44
2021/09/21 08:07:47;;;;;;;1.05;0.70;;;;;;;;;;5055104;28;20086;-46
2021/09/21 08:10:16;;;;;;;1.90;0.52;;;;;;;;;;5054407;28;20495;-43
2021/09/21 08:12:43;;;;;;;1.95;0.65;;;;;;;;;;5054720;28;20068;-45
2021/09/21 08:15:11;;;;;;;2.22;0.75;;;;;;;;;;5052918;28;20071;-44
2021/09/21 08:17:38;;;;;;;1.63;0.70;;;;;;;;;;5054738;28;20486;-42
2021/09/21 08:20:06;;;;;;;2.90;0.82;;;;;;;;;;5054332;28;20021;-43
2021/09/21 08:22:33;;;;;;;1.08;0.70;;;;;;;;;;5054822;28;20024;-44
2021/09/21 08:25:00;;;;;;;2.10;0.70;;;;;;;;;;5053806;28;20021;-43
2021/09/21 08:27:27;;;;;;;1.15;0.60;;;;;;;;;;5054672;28;20044;-46
2021/09/21 08:29:54;;;;;;;1.10;0.65;;;;;;;;;;5052559;28;20057;-46
2021/09/21 08:32:22;;;;;;;3.05;0.90;;;;;;;;;;5054418;28;20049;-44
2021/09/21 08:34:49;;;;;;;2.38;0.52;;;;;;;;;;5054104;28;20021;-43
2021/09/21 08:37:16;;;;;;;2.53;0.55;;;;;;;;;;5054153;28;20405;-42
2021/09/21 08:39:43;;;;;;;1.15;0.50;;;;;;;;;;5054405;28;20048;-44
2021/09/21 08:42:09;;;;;;;1.63;0.80;;;;;;;;;;5053956;28;20025;-43
2021/09/21 08:44:37;;;;;;;0.90;0.50;;;;;;;;;;5054320;28;20025;-46
2021/09/21 08:47:05;;;;;;;1.70;0.55;;;;;;;;;;5053677;28;20534;-44
2021/09/21 08:49:32;;;;;;;1.05;0.68;;;;;;;;;;5054261;28;20037;-43
2021/09/21 08:51:59;;;;;;;1.95;0.68;;;;;;;;;;5052387;28;20116;-43
2021/09/21 08:54:27;;;;;;;2.03;0.68;;;;;;;;;;5054219;28;20444;-43
2021/09/21 08:56:55;;;;;;;1.38;0.50;;;;;;;;;;5053185;28;20029;-49
2021/09/21 08:59:29;;;;;;;1.48;0.60;;;;;;;;;;5054085;28;20096;-48
2021/09/21 09:01:56;;;;;;;2.72;0.73;;;;;;;;;;5053706;28;20036;-43
2021/09/21 09:04:23;;;;;;;2.67;0.60;;;;;;;;;;5054054;28;20031;-44
2021/09/21 09:06:54;;;;;;;1.80;0.70;;;;;;;;;;5051769;28;20030;-45
2021/09/21 09:09:22;;;;;;;1.48;0.80;;;;;;;;;;5053943;28;20493;-43
2021/09/21 09:11:50;;;;;;;2.08;0.93;;;;;;;;;;5052961;28;20033;-45
2021/09/21 09:14:28;;;;;;;1.77;0.73;;;;;;;;;;5053285;28;20024;-43
2021/09/21 09:16:56;;;;;;;1.48;0.73;;;;;;;;;;5053243;28;20461;-43
2021/09/21 09:19:31;;;;;;;1.85;0.60;;;;;;;;;;5053304;28;20477;-43
2021/09/21 09:22:04;;;;;;;1.52;0.60;;;;;;;;;;5053726;28;20074;-45
2021/09/21 09:24:31;;;;;;;2.42;0.60;;;;;;;;;;5053188;28;20068;-43
2021/09/21 09:26:58;;;;;;;1.35;0.60;;;;;;;;;;5053298;28;20083;-44
2021/09/21 09:29:25;;;;;;;1.23;0.47;;;;;;;;;;5053048;28;20113;-43
2021/09/21 09:31:52;;;;;;;1.45;0.60;;;;;;;;;;5052071;28;20036;-43
2021/09/21 09:34:27;;;;;;;0.95;0.52;;;;;;;;;;5052549;28;20059;-43
2021/09/21 09:36:58;;;;;;;1.42;0.47;;;;;;;;;;5053172;28;20021;-46
2021/09/21 09:39:26;;;;;;;1.77;0.65;;;;;;;;;;5051915;28;20036;-47
2021/09/21 09:41:54;;;;;;;1.38;0.50;;;;;;;;;;5052742;28;20116;-42
2021/09/21 09:44:23;;;;;;;2.38;0.47;;;;;;;;;;5051593;28;20020;-43
2021/09/21 09:46:54;;;;;;;2.05;0.47;;;;;;;;;;5052728;28;20028;-42
2021/09/21 09:49:26;;;;;;;4.55;0.63;;;;;;;;;;5052136;28;20106;-45
2021/09/21 09:51:54;;;;;;;20.13;1.40;;;;;;;;;;5064948;28;20703;-45
2021/09/21 09:54:22;;;;;;;2.78;0.80;;;;;;;;;;5058700;28;20107;-44
2021/09/21 09:56:49;;;;;;;7.78;1.08;;;;;;;;;;5062970;28;20032;-41
2021/09/21 09:59:16;;;;;;;18.00;1.30;;;;;;;;;;5051933;28;20419;-43
2021/09/21 10:01:44;;;;;;;8.45;0.90;;;;;;;;;;5061443;28;20039;-43
2021/09/21 10:04:14;;;;;;;6.18;0.85;;;;;;;;;;5072497;28;20127;-43
2021/09/21 10:06:43;;;;;;;5.65;1.15;;;;;;;;;;5071085;28;20054;-42
2021/09/21 10:09:11;;;;;;;7.13;0.90;;;;;;;;;;5071124;28;20078;-44
2021/09/21 10:11:38;;;;;;;6.63;0.80;;;;;;;;;;5070763;28;20036;-41
2021/09/21 10:14:06;;;;;;;1.95;0.80;;;;;;;;;;5059096;28;20013;-43
2021/09/21 10:16:33;;;;;;;2.83;0.82;;;;;;;;;;5049893;28;20041;-43
2021/09/21 10:19:03;;;;;;;4.75;0.90;;;;;;;;;;5050851;28;20024;-43
2021/09/21 10:21:31;;;;;;;3.25;0.80;;;;;;;;;;5051358;28;20079;-43
2021/09/21 10:24:03;;;;;;;10.40;1.30;;;;;;;;;;5051856;28;20104;-40
2021/09/21 10:26:31;;;;;;;7.55;1.40;;;;;;;;;;5050973;28;20017;-44
2021/09/21 10:28:58;;;;;;;8.60;0.98;;;;;;;;;;5051818;28;20118;-43
2021/09/21 10:31:26;;;;;;;5.50;1.02;;;;;;;;;;5050433;28;20035;-41
2021/09/21 10:33:53;;;;;;;3.63;0.90;;;;;;;;;;5051266;28;20021;-41
2021/09/21 10:36:21;;;;;;;4.80;0.85;;;;;;;;;;5051993;28;20021;-41
2021/09/21 10:39:07;;;;;;;13.38;1.33;;;;;;;;;;5050399;28;20021;-43
2021/09/21 10:41:34;;;;;;;8.43;1.27;;;;;;;;;;5049753;28;20111;-42
2021/09/21 10:44:05;;;;;;;13.00;1.42;;;;;;;;;;5050383;28;20060;-40
2021/09/21 10:46:43;;;;;;;2.30;0.82;;;;;;;;;;5051243;28;20489;-43
2021/09/21 10:49:22;;;;;;;5.38;1.00;;;;;;;;;;5067662;28;20546;-47
2021/09/21 10:51:49;;;;;;;5.30;0.90;;;;;;;;;;5051132;28;20041;-47
2021/09/21 10:54:16;;;;;;;1.25;0.60;;;;;;;;;;5050457;28;20025;-48
2021/09/21 10:56:43;;;;;;;3.10;0.95;;;;;;;;;;5050337;28;20021;-50
2021/09/21 10:59:19;;;;;;;5.60;0.75;;;;;;;;;;5050433;28;20012;-49
2021/09/21 11:01:50;;;;;;;3.58;0.77;;;;;;;;;;5073935;28;20416;-47
2021/09/21 11:04:18;;;;;;;2.67;0.68;;;;;;;;;;5051396;28;20465;-47
2021/09/21 11:06:45;;;;;;;5.90;0.82;;;;;;;;;;5051805;28;20025;-48
2021/09/21 11:09:12;;;;;;;7.07;0.80;;;;;;;;;;5051277;28;20048;-47
2021/09/21 11:11:39;;;;;;;5.05;0.80;;;;;;;;;;5051798;28;20074;-48
2021/09/21 11:14:07;;;;;;;7.20;0.90;;;;;;;;;;5051337;28;20078;-47
2021/09/21 11:16:35;;;;;;;3.78;1.00;;;;;;;;;;5050886;28;20028;-46
2021/09/21 11:19:05;;;;;;;5.70;1.30;;;;;;;;;;5051290;28;20047;-47
2021/09/21 11:21:32;;;;;;;23.38;1.92;;;;;;;;;;5050990;28;20033;-45
2021/09/21 11:23:59;;;;;;;38.05;2.00;;;;;;;;;;5051816;28;20095;-40
2021/09/21 11:26:26;;;;;;;37.58;2.15;;;;;;;;;;5050932;28;20512;-39
2021/09/21 11:28:53;;;;;;;26.60;3.08;;;;;;;;;;5051343;28;20044;-42
2021/09/21 11:31:20;;;;;;;26.65;2.25;;;;;;;;;;5051106;28;20044;-45
2021/09/21 11:33:48;;;;;;;116.97;5.00;;;;;;;;;;5061974;28;20016;-43
2021/09/21 11:36:17;;;;;;;95.38;4.60;;;;;;;;;;5074285;28;20027;-47
2021/09/21 11:38:47;;;;;;;32.72;2.60;;;;;;;;;;5070359;28;20020;-46
2021/09/21 11:41:14;;;;;;;32.05;2.25;;;;;;;;;;5074160;28;20017;-44
2021/09/21 11:43:42;;;;;;;120.10;8.63;;;;;;;;;;5074516;28;20389;-43
2021/09/21 11:46:09;;;;;;;81.75;6.70;;;;;;;;;;5074265;28;20074;-44
2021/09/21 11:48:36;;;;;;;88.75;6.75;;;;;;;;;;5073762;28;20020;-44
2021/09/21 11:51:03;;;;;;;88.55;6.20;;;;;;;;;;5074274;28;20060;-44
2021/09/21 11:53:30;;;;;;;73.40;4.78;;;;;;;;;;5074476;28;20025;-45
2021/09/21 11:56:00;;;;;;;54.00;4.63;;;;;;;;;;5075060;28;20033;-44
2021/09/21 11:58:29;;;;;;;59.65;5.38;;;;;;;;;;5072915;28;20032;-44
2021/09/21 12:00:57;;;;;;;36.75;3.92;;;;;;;;;;5074598;28;20070;-43
2021/09/21 12:03:25;;;;;;;57.58;5.05;;;;;;;;;;5074645;28;20063;-47
2021/09/21 12:05:54;;;;;;;50.35;5.00;;;;;;;;;;5074656;28;20021;-45
2021/09/21 12:08:23;;;;;;;52.13;5.32;;;;;;;;;;5074266;28;20028;-47
2021/09/21 12:10:57;;;;;;;67.80;6.07;;;;;;;;;;5074675;28;20107;-46
2021/09/21 12:13:25;;;;;;;43.83;5.20;;;;;;;;;;5074381;28;20055;-48
2021/09/21 12:15:57;;;;;;;42.63;4.82;;;;;;;;;;5074313;28;20020;-47
2021/09/21 12:18:25;;;;;;;26.85;3.28;;;;;;;;;;5074015;28;20033;-47
2021/09/21 12:20:54;;;;;;;20.25;2.28;;;;;;;;;;5074590;28;20469;-48
2021/09/21 12:23:26;;;;;;;14.57;1.50;;;;;;;;;;5074119;28;20025;-43
2021/09/21 12:25:54;;;;;;;20.83;2.42;;;;;;;;;;5074003;28;20017;-44
2021/09/21 12:28:31;;;;;;;16.98;1.67;;;;;;;;;;5073290;28;20029;-48
2021/09/21 12:31:00;;;;;;;20.27;2.33;;;;;;;;;;5073521;28;20087;-48
2021/09/21 12:33:27;;;;;;;10.23;1.70;;;;;;;;;;5073102;28;20036;-54
2021/09/21 12:35:54;;;;;;;8.00;0.95;;;;;;;;;;5073578;28;20020;-54
2021/09/21 12:38:25;;;;;;;5.28;1.00;;;;;;;;;;5072313;28;20082;-54
2021/09/21 12:40:56;;;;;;;6.03;1.15;;;;;;;;;;5073594;28;20112;-47
2021/09/21 12:43:25;;;;;;;7.13;2.05;;;;;;;;;;5073958;28;20025;-52
2021/09/21 12:45:54;;;;;;;6.47;1.50;;;;;;;;;;5072293;28;20423;-51
2021/09/21 12:48:28;;;;;;;11.63;1.45;;;;;;;;;;5074390;28;20030;-55
2021/09/21 12:50:58;;;;;;;12.88;1.60;;;;;;;;;;5073440;28;20082;-54
2021/09/21 12:53:26;;;;;;;10.23;1.40;;;;;;;;;;5074119;28;20012;-56
2021/09/21 12:56:13;;;;;;;14.75;1.20;;;;;;;;;;5073002;28;20052;-51
2021/09/21 12:58:42;;;;;;;8.52;1.30;;;;;;;;;;5073914;28;20021;-55
2021/09/21 13:01:17;;;;;;;9.07;1.00;;;;;;;;;;5073263;28;20024;-56
2021/09/21 13:03:44;;;;;;;6.05;0.95;;;;;;;;;;5073945;28;20039;-56
2021/09/21 13:06:11;;;;;;;4.80;0.80;;;;;;;;;;5073202;28;20020;-51
2021/09/21 13:08:41;;;;;;;3.22;0.93;;;;;;;;;;5073402;28;20059;-53
2021/09/21 13:11:08;;;;;;;4.40;0.55;;;;;;;;;;5073034;28;20354;-52
2021/09/21 13:13:35;;;;;;;27.50;1.77;;;;;;;;;;5073591;28;20384;-53
2021/09/21 13:16:03;;;;;;;9.82;0.93;;;;;;;;;;5073232;28;20025;-56
2021/09/21 13:18:30;;;;;;;7.65;0.73;;;;;;;;;;5071644;28;20492;-56
2021/09/21 13:20:57;;;;;;;7.30;0.80;;;;;;;;;;5051890;28;20029;-46
2021/09/21 13:23:24;;;;;;;5.30;0.95;;;;;;;;;;5051874;28;20029;-48
2021/09/21 13:25:52;;;;;;;4.28;0.60;;;;;;;;;;5053485;28;20074;-55
2021/09/21 13:28:19;;;;;;;8.20;0.93;;;;;;;;;;5052801;28;20384;-55
2021/09/21 13:30:49;;;;;;;16.92;1.88;;;;;;;;;;5052800;28;20048;-55
2021/09/21 13:33:21;;;;;;;28.25;2.33;;;;;;;;;;5052917;28;20032;-56
2021/09/21 13:35:48;;;;;;;21.38;2.75;;;;;;;;;;5051635;28;20103;-56
2021/09/21 13:38:16;;;;;;;22.27;2.42;;;;;;;;;;5052558;28;20029;-54
2021/09/21 13:40:43;;;;;;;15.35;2.17;;;;;;;;;;5053214;28;20357;-56
2021/09/21 13:43:10;;;;;;;12.88;1.88;;;;;;;;;;5052011;28;20432;-56
2021/09/21 13:45:37;;;;;;;5.85;1.25;;;;;;;;;;5053075;28;20104;-52
2021/09/21 13:48:04;;;;;;;11.50;1.23;;;;;;;;;;5052394;28;20021;-57
2021/09/21 13:50:31;;;;;;;8.55;0.93;;;;;;;;;;5052574;28;20572;-58
2021/09/21 13:52:58;;;;;;;5.13;0.70;;;;;;;;;;5052846;28;20052;-57
2021/09/21 13:55:26;;;;;;;12.05;0.77;;;;;;;;;;5063394;28;20060;-57
2021/09/21 13:57:53;;;;;;;5.53;0.60;;;;;;;;;;5072251;28;20058;-52
2021/09/21 14:00:25;;;;;;;6.18;0.60;;;;;;;;;;5072107;28;20050;-57
2021/09/21 14:02:51;;;;;;;;;;;;;;;;;;5072728;28;20431;-52
2021/09/21 14:05:19;;;;;;;20.30;1.55;;;;;;;;;;5071517;28;19908;-45
2021/09/21 14:07:47;;;;;;;4.28;0.55;;;;;;;;;;5071871;28;20507;-46
2021/09/21 14:10:16;;;;;;;7.82;0.65;;;;;;;;;;5070917;28;20389;-48
2021/09/21 14:12:43;;;;;;;16.90;0.85;;;;;;;;;;5066250;28;20086;-47
2021/09/21 14:15:12;;;;;;;11.70;1.23;;;;;;;;;;5056597;28;20112;-45
2021/09/21 14:17:40;;;;;;;9.90;0.80;;;;;;;;;;5062249;28;20017;-46
2021/09/21 14:20:08;;;;;;;19.13;1.27;;;;;;;;;;5069230;28;20029;-49
2021/09/21 14:22:35;;;;;;;5.85;0.50;;;;;;;;;;5063044;28;20546;-46
2021/09/21 14:25:02;;;;;;;18.38;1.98;;;;;;;;;;5065899;28;20468;-45
2021/09/21 14:27:29;;;;;;;19.85;1.13;;;;;;;;;;5066998;28;20028;-48
2021/09/21 14:29:57;;;;;;;15.70;1.02;;;;;;;;;;5068672;28;20043;-46
2021/09/21 14:32:25;;;;;;;12.25;0.93;;;;;;;;;;5068635;28;20041;-49
2021/09/21 14:34:53;;;;;;;16.85;1.25;;;;;;;;;;5065601;28;20020;-49
2021/09/21 14:37:20;;;;;;;23.35;1.33;;;;;;;;;;5062259;28;20024;-47
2021/09/21 14:39:47;;;;;;;9.77;1.05;;;;;;;;;;5063546;28;20051;-48
2021/09/21 14:42:14;;;;;;;26.48;2.92;;;;;;;;;;5066638;28;20583;-47
2021/09/21 14:44:41;;;;;;;19.33;1.50;;;;;;;;;;5065406;28;20029;-43
2021/09/21 14:47:08;;;;;;;21.98;1.38;;;;;;;;;;5064745;28;20070;-50
2021/09/21 14:49:35;;;;;;;18.40;1.65;;;;;;;;;;5070630;28;20492;-44
2021/09/21 14:52:03;;;;;;;11.70;0.98;;;;;;;;;;5065994;28;20082;-44